Time;durP1;ratioP1;P1;durP2;ratioP2;P2;SDS_P1;SDS_P2;PMS_P1;PMS_P2;Temp;Humidity;BMP_temperature;BMP_pressure;BME280_temperature;BME280_humidity;BME280_pressure;Samples;Min_cycle;Max_cycle;Signal;HPM_P1;HPM_P2
2023/12/26 00:00:40;;;;;;;22.20;13.53;;;;;;;3.84;75.87;100546.22;5089529;28;20095;-83
2023/12/26 00:03:06;;;;;;;22.27;12.17;;;;;;;3.81;75.92;100546.13;5092463;28;20076;-84
2023/12/26 00:05:35;;;;;;;26.00;13.07;;;;;;;3.81;75.78;100552.22;5092334;28;20035;-83
2023/12/26 00:08:03;;;;;;;21.50;12.10;;;;;;;3.80;75.86;100552.19;5092474;28;20089;-83
2023/12/26 00:10:29;;;;;;;21.63;11.82;;;;;;;3.81;75.71;100540.94;5074331;28;20391;-82
2023/12/26 00:12:55;;;;;;;20.50;11.60;;;;;;;3.79;75.28;100537.41;5092828;28;20120;-83
2023/12/26 00:15:20;;;;;;;22.17;11.90;;;;;;;3.77;75.46;100541.69;5092165;28;20093;-83
2023/12/26 00:17:46;;;;;;;21.33;11.43;;;;;;;3.74;75.36;100539.84;5073588;28;20024;-83
2023/12/26 00:20:12;;;;;;;22.57;11.40;;;;;;;3.71;75.89;100534.56;5094261;28;20480;-83
2023/12/26 00:22:37;;;;;;;20.75;10.80;;;;;;;3.67;75.97;100533.59;5112438;28;20023;-87
2023/12/26 00:25:03;;;;;;;18.03;10.03;;;;;;;3.65;75.99;100529.19;5109667;28;20031;-83
2023/12/26 00:27:28;;;;;;;19.10;10.47;;;;;;;3.63;75.82;100530.88;5092127;28;20032;-81
2023/12/26 00:29:54;;;;;;;21.30;11.75;;;;;;;3.61;75.98;100533.41;5091652;28;20121;-83
2023/12/26 00:32:19;;;;;;;20.00;10.90;;;;;;;3.56;75.99;100527.19;5091932;28;20036;-85
2023/12/26 00:34:44;;;;;;;25.10;11.57;;;;;;;3.53;76.22;100520.19;5092006;28;20466;-86
2023/12/26 00:37:10;;;;;;;24.53;11.73;;;;;;;3.51;76.13;100519.25;5092041;28;20036;-85
2023/12/26 00:39:35;;;;;;;26.35;12.38;;;;;;;3.54;75.96;100518.47;5092134;28;20531;-85
2023/12/26 00:42:01;;;;;;;22.37;11.77;;;;;;;3.52;76.29;100514.94;5074167;28;20035;-86
2023/12/26 00:44:27;;;;;;;24.20;11.37;;;;;;;3.52;76.01;100512.34;5073639;28;20421;-88
2023/12/26 00:46:52;;;;;;;26.08;11.45;;;;;;;3.54;76.39;100505.44;5091538;28;20039;-86
2023/12/26 00:49:18;;;;;;;23.60;11.07;;;;;;;3.53;76.03;100503.69;5091886;28;20024;-84
2023/12/26 00:51:43;;;;;;;27.27;11.47;;;;;;;3.52;76.30;100504.53;5073423;28;20109;-85
2023/12/26 00:54:09;;;;;;;32.60;12.37;;;;;;;3.50;76.20;100508.81;5091768;28;20268;-84
2023/12/26 00:56:34;;;;;;;30.70;12.47;;;;;;;3.45;76.33;100506.94;5091715;28;20054;-84
2023/12/26 00:58:59;;;;;;;25.77;11.80;;;;;;;3.43;76.26;100503.41;5091358;28;20120;-85
2023/12/26 01:01:25;;;;;;;28.20;11.40;;;;;;;3.40;76.42;100503.31;5091518;28;20036;-87
2023/12/26 01:03:50;;;;;;;24.35;11.15;;;;;;;3.40;76.45;100503.31;5091351;28;20128;-85
2023/12/26 01:06:16;;;;;;;24.60;11.50;;;;;;;3.38;76.52;100498.94;5091457;28;20286;-83
2023/12/26 01:08:41;;;;;;;28.90;12.63;;;;;;;3.38;76.52;100498.94;5091319;28;20031;-86
2023/12/26 01:11:07;;;;;;;27.10;12.17;;;;;;;3.38;76.61;100499.78;5091315;28;20044;-86
2023/12/26 01:13:34;;;;;;;26.17;12.20;;;;;;;3.36;76.17;100500.56;5090991;28;20035;-86
2023/12/26 01:16:03;;;;;;;27.45;11.82;;;;;;;3.28;76.28;100497.78;5091456;28;20032;-86
2023/12/26 01:18:30;;;;;;;30.80;13.27;;;;;;;3.20;76.80;100505.34;5091596;28;20419;-87
2023/12/26 01:20:55;;;;;;;28.15;12.85;;;;;;;3.14;76.91;100516.44;5099436;28;20478;-85
2023/12/26 01:23:21;;;;;;;61.97;13.60;;;;;;;3.11;76.56;100505.03;5111372;28;20050;-85
2023/12/26 01:25:46;;;;;;;39.40;12.97;;;;;;;3.04;77.40;100504.00;5102484;28;20496;-83
2023/12/26 01:28:11;;;;;;;33.77;12.40;;;;;;;3.01;77.48;100506.50;5090964;28;20262;-83
2023/12/26 01:30:40;;;;;;;29.67;12.73;;;;;;;2.99;77.17;100510.75;5090358;28;20278;-81
2023/12/26 01:33:06;;;;;;;25.27;12.30;;;;;;;2.95;77.67;100512.41;5090977;28;20020;-81
2023/12/26 01:35:31;;;;;;;25.67;12.63;;;;;;;2.91;77.16;100513.16;5091010;28;20373;-81
2023/12/26 01:37:56;;;;;;;26.50;12.00;;;;;;;2.86;77.94;100510.41;5090736;28;20020;-80
2023/12/26 01:40:22;;;;;;;26.13;12.20;;;;;;;2.82;77.63;100508.53;5072606;28;20392;-81
2023/12/26 01:42:47;;;;;;;23.90;11.20;;;;;;;2.78;77.64;100522.28;5090251;28;20056;-81
2023/12/26 01:45:13;;;;;;;22.33;11.13;;;;;;;2.77;77.79;100523.09;5089921;28;20437;-81
2023/12/26 01:47:40;;;;;;;20.35;10.80;;;;;;;2.81;77.62;100534.47;5090460;28;20024;-81
2023/12/26 01:50:07;;;;;;;23.65;11.63;;;;;;;2.82;77.99;100531.06;5090382;28;20495;-80
2023/12/26 01:52:35;;;;;;;19.48;9.98;;;;;;;2.79;77.66;100536.16;5090947;28;20028;-82
2023/12/26 01:55:01;;;;;;;20.87;10.27;;;;;;;2.79;77.86;100538.75;5090495;28;20035;-81
2023/12/26 01:57:27;;;;;;;18.95;9.40;;;;;;;2.83;77.38;100540.63;5090797;28;20020;-81
2023/12/26 01:59:52;;;;;;;18.98;10.02;;;;;;;2.85;77.69;100537.25;5089983;28;20130;-81
2023/12/26 02:02:18;;;;;;;18.17;9.57;;;;;;;2.87;77.75;100538.19;5090414;28;20059;-83
2023/12/26 02:04:44;;;;;;;17.17;9.70;;;;;;;2.89;77.19;100535.59;5090099;28;20472;-81
2023/12/26 02:07:10;;;;;;;17.83;9.23;;;;;;;2.89;77.43;100537.34;5090025;28;20039;-80
2023/12/26 02:09:36;;;;;;;17.87;9.37;;;;;;;2.89;77.30;100532.13;5089848;28;20791;-81
2023/12/26 02:12:01;;;;;;;17.02;8.77;;;;;;;2.89;77.15;100534.72;5090086;28;20050;-81
2023/12/26 02:14:27;;;;;;;16.97;9.00;;;;;;;2.89;77.16;100539.94;5089842;28;20404;-81
2023/12/26 02:16:54;;;;;;;17.43;9.07;;;;;;;2.84;77.27;100532.88;5089757;28;20077;-81
2023/12/26 02:19:20;;;;;;;18.23;9.07;;;;;;;2.82;76.72;100539.75;5090288;28;20031;-81
2023/12/26 02:21:46;;;;;;;15.50;8.68;;;;;;;2.80;76.63;100541.41;5105067;28;20035;-83
2023/12/26 02:24:11;;;;;;;14.90;8.43;;;;;;;2.79;77.06;100547.47;5108241;28;20423;-81
2023/12/26 02:26:40;;;;;;;16.70;8.73;;;;;;;2.77;77.32;100551.69;5095040;28;20055;-81
2023/12/26 02:29:06;;;;;;;16.27;8.60;;;;;;;2.75;76.62;100553.38;5071115;28;20649;-81
2023/12/26 02:31:37;;;;;;;15.48;8.30;;;;;;;2.73;77.00;100555.03;5089876;28;20024;-81
2023/12/26 02:34:02;;;;;;;16.50;8.32;;;;;;;2.72;76.90;100554.16;5089920;28;20032;-81
2023/12/26 02:36:28;;;;;;;15.07;7.70;;;;;;;2.72;76.87;100554.16;5089731;28;20762;-81
2023/12/26 02:38:54;;;;;;;16.10;8.23;;;;;;;2.72;76.67;100553.28;5089950;28;20445;-81
2023/12/26 02:41:19;;;;;;;15.57;8.07;;;;;;;2.71;77.06;100556.72;5089578;28;20024;-81
2023/12/26 02:43:44;;;;;;;14.60;7.87;;;;;;;2.67;76.52;100560.03;5089052;28;20032;-81
2023/12/26 02:46:10;;;;;;;16.75;9.07;;;;;;;2.64;76.61;100555.63;5089857;28;20081;-81
2023/12/26 02:48:35;;;;;;;14.33;8.63;;;;;;;2.61;76.85;100570.25;5089567;28;20032;-81
2023/12/26 02:51:02;;;;;;;14.10;8.47;;;;;;;2.53;76.69;100557.91;5089705;28;20020;-81
2023/12/26 02:53:28;;;;;;;17.55;8.30;;;;;;;2.51;76.59;100559.53;5089808;28;20035;-81
2023/12/26 02:55:53;;;;;;;15.97;8.33;;;;;;;2.48;77.00;100549.03;5089668;28;20478;-82
2023/12/26 02:58:20;;;;;;;15.27;9.10;;;;;;;2.49;76.58;100550.78;5089719;28;20051;-82
2023/12/26 03:00:45;;;;;;;15.52;8.40;;;;;;;2.47;76.98;100549.88;5089178;28;20028;-81
2023/12/26 03:03:11;;;;;;;14.88;7.85;;;;;;;2.47;76.50;100555.06;5089562;28;20093;-81
2023/12/26 03:05:36;;;;;;;15.47;8.07;;;;;;;2.44;77.00;100545.47;5089486;28;20020;-81
2023/12/26 03:08:02;;;;;;;14.83;9.10;;;;;;;2.42;76.34;100543.63;5089175;28;20423;-81
2023/12/26 03:10:27;;;;;;;16.77;8.23;;;;;;;2.41;76.78;100541.88;5089261;28;20039;-81
2023/12/26 03:12:53;;;;;;;15.40;8.50;;;;;;;2.41;76.65;100542.75;5089611;28;20468;-82
2023/12/26 03:15:18;;;;;;;14.77;8.40;;;;;;;2.40;76.37;100538.38;5089155;28;20024;-81
2023/12/26 03:17:44;;;;;;;15.50;8.80;;;;;;;2.36;76.63;100533.03;5089412;28;20055;-81
2023/12/26 03:20:10;;;;;;;17.77;8.77;;;;;;;2.28;76.55;100531.03;5091151;28;20032;-82
2023/12/26 03:22:35;;;;;;;16.30;8.65;;;;;;;2.27;77.13;100536.22;5109542;28;20114;-82
2023/12/26 03:25:00;;;;;;;14.90;8.10;;;;;;;2.28;76.82;100543.16;5106820;28;20491;-82
2023/12/26 03:27:26;;;;;;;15.87;8.27;;;;;;;2.28;76.80;100536.25;5089283;28;20115;-81
2023/12/26 03:29:51;;;;;;;17.03;8.33;;;;;;;2.27;77.37;100538.81;5088838;28;20277;-82
2023/12/26 03:32:20;;;;;;;15.23;7.93;;;;;;;2.27;76.70;100539.66;5089089;28;20547;-82
2023/12/26 03:34:45;;;;;;;18.40;8.80;;;;;;;2.24;77.02;100541.31;5090249;28;20107;-82
2023/12/26 03:37:10;;;;;;;19.40;9.47;;;;;;;2.18;77.20;100539.38;5093168;28;20506;-82
2023/12/26 03:39:37;;;;;;;18.47;8.73;;;;;;;2.15;77.38;100532.34;5092761;28;20027;-81
2023/12/26 03:42:02;;;;;;;18.67;8.57;;;;;;;2.13;76.98;100538.34;5092968;28;20052;-83
2023/12/26 03:44:28;;;;;;;16.33;8.40;;;;;;;2.10;77.08;100530.44;5092345;28;20162;-82
2023/12/26 03:46:53;;;;;;;18.38;8.18;;;;;;;2.08;76.99;100534.69;5092517;28;20107;-82
2023/12/26 03:49:18;;;;;;;15.90;8.20;;;;;;;2.08;76.82;100538.16;5092935;28;20181;-81
2023/12/26 03:51:44;;;;;;;13.80;7.60;;;;;;;2.10;76.69;100539.09;5074085;28;20024;-81
2023/12/26 03:54:10;;;;;;;16.93;7.60;;;;;;;2.09;77.20;100529.53;5092932;28;20082;-81
2023/12/26 03:56:35;;;;;;;15.43;7.55;;;;;;;2.08;77.52;100542.50;5092764;28;20444;-82
2023/12/26 03:59:01;;;;;;;15.17;7.60;;;;;;;2.07;77.60;100543.31;5092492;28;20058;-81
2023/12/26 04:01:27;;;;;;;14.63;8.20;;;;;;;2.08;77.37;100542.50;5092841;28;20027;-82
2023/12/26 04:03:53;;;;;;;15.27;7.43;;;;;;;2.08;77.38;100550.28;5092233;28;20020;-82
2023/12/26 04:06:18;;;;;;;14.70;7.05;;;;;;;2.07;77.55;100551.13;5092431;28;20105;-81
2023/12/26 04:08:44;;;;;;;13.83;7.17;;;;;;;2.07;76.73;100551.97;5092379;28;20032;-81
2023/12/26 04:11:10;;;;;;;14.03;7.13;;;;;;;2.06;77.18;100550.22;5092564;28;20028;-81
2023/12/26 04:13:35;;;;;;;14.70;7.78;;;;;;;2.05;76.96;100548.44;5092181;28;20036;-81
2023/12/26 04:16:01;;;;;;;16.90;7.95;;;;;;;2.07;77.21;100558.91;5092546;28;20035;-81
2023/12/26 04:18:26;;;;;;;13.70;7.00;;;;;;;2.04;77.15;100550.97;5092328;28;20395;-82
2023/12/26 04:20:52;;;;;;;15.03;6.73;;;;;;;2.03;77.32;100559.59;5099739;28;20375;-81
2023/12/26 04:23:17;;;;;;;14.70;7.30;;;;;;;1.99;76.69;100564.69;5112518;28;20044;-81
2023/12/26 04:25:42;;;;;;;12.37;7.03;;;;;;;1.95;76.58;100555.03;5085525;28;20274;-81
2023/12/26 04:28:08;;;;;;;15.40;7.43;;;;;;;1.96;77.05;100563.72;5092049;28;20420;-81
2023/12/26 04:30:33;;;;;;;13.57;7.03;;;;;;;1.93;76.89;100566.19;5091626;28;20099;-81
2023/12/26 04:32:59;;;;;;;14.68;7.25;;;;;;;1.92;77.06;100561.81;5092397;28;20501;-81
2023/12/26 04:35:24;;;;;;;12.73;6.90;;;;;;;1.90;77.04;100559.19;5092093;28;20036;-83
2023/12/26 04:37:50;;;;;;;12.73;6.70;;;;;;;1.90;77.34;100564.38;5092534;28;20032;-82
2023/12/26 04:40:15;;;;;;;11.93;6.20;;;;;;;1.88;76.45;100557.34;5092461;28;20028;-81
2023/12/26 04:42:41;;;;;;;12.23;6.50;;;;;;;1.84;76.43;100564.16;5091766;28;20101;-82
2023/12/26 04:45:07;;;;;;;13.85;7.13;;;;;;;1.80;76.77;100562.25;5072826;28;20032;-82
2023/12/26 04:47:32;;;;;;;14.70;7.20;;;;;;;1.79;76.83;100565.69;5090949;28;20032;-81
2023/12/26 04:49:59;;;;;;;11.97;6.50;;;;;;;1.78;77.37;100563.91;5091602;28;20097;-81
2023/12/26 04:52:24;;;;;;;15.05;6.47;;;;;;;1.77;76.64;100554.34;5091686;28;20034;-83
2023/12/26 04:54:50;;;;;;;11.30;6.13;;;;;;;1.76;76.79;100552.59;5091614;28;20028;-82
2023/12/26 04:57:15;;;;;;;12.53;6.77;;;;;;;1.74;77.32;100562.94;5091721;28;20032;-81
2023/12/26 04:59:41;;;;;;;14.77;6.80;;;;;;;1.71;76.92;100566.28;5072989;28;20112;-82
2023/12/26 05:02:06;;;;;;;12.73;6.03;;;;;;;1.70;76.87;100567.13;5091640;28;20024;-83
2023/12/26 05:04:32;;;;;;;12.63;6.93;;;;;;;1.69;76.41;100565.34;5091444;28;20262;-82
2023/12/26 05:06:57;;;;;;;12.37;6.33;;;;;;;1.66;77.09;100570.44;5091083;28;20547;-81
2023/12/26 05:09:22;;;;;;;12.57;6.27;;;;;;;1.63;76.74;100572.94;5091275;28;20702;-85
2023/12/26 05:11:48;;;;;;;14.63;7.30;;;;;;;1.63;76.36;100575.53;5091414;28;20038;-83
2023/12/26 05:14:13;;;;;;;13.27;6.30;;;;;;;1.61;77.03;100573.69;5091133;28;20072;-81
2023/12/26 05:16:42;;;;;;;14.10;7.50;;;;;;;1.62;76.89;100578.03;5091471;28;20373;-85
2023/12/26 05:19:08;;;;;;;12.50;6.32;;;;;;;1.60;76.37;100583.19;5091553;28;20027;-83
2023/12/26 05:21:35;;;;;;;13.67;7.33;;;;;;;1.59;77.21;100589.22;5104852;28;20028;-81
2023/12/26 05:24:00;;;;;;;13.85;6.75;;;;;;;1.56;77.00;100592.56;5110445;28;20031;-81
2023/12/26 05:26:26;;;;;;;13.70;7.27;;;;;;;1.53;77.15;100594.16;5098499;28;20389;-86
2023/12/26 05:28:51;;;;;;;13.55;7.18;;;;;;;1.52;77.21;100605.38;5090738;28;20112;-81
2023/12/26 05:31:20;;;;;;;14.83;7.13;;;;;;;1.51;77.03;100603.59;5091350;28;20030;-81
2023/12/26 05:33:46;;;;;;;13.15;7.00;;;;;;;1.48;76.97;100606.06;5090961;28;20023;-81
2023/12/26 05:36:12;;;;;;;13.73;7.20;;;;;;;1.46;77.21;100619.00;5090929;28;20028;-81
2023/12/26 05:38:37;;;;;;;15.00;7.78;;;;;;;1.47;77.01;100625.97;5090752;28;20095;-82
2023/12/26 05:41:04;;;;;;;12.60;6.70;;;;;;;1.46;77.08;100621.59;5090850;28;20095;-81
2023/12/26 05:43:30;;;;;;;14.68;8.05;;;;;;;1.43;77.10;100616.28;5072393;28;20571;-81
2023/12/26 05:45:55;;;;;;;16.40;7.90;;;;;;;1.39;76.20;100617.88;5090499;28;20111;-82
2023/12/26 05:48:20;;;;;;;14.83;7.43;;;;;;;1.34;76.84;100619.41;5090550;28;20035;-84
2023/12/26 05:50:46;;;;;;;14.13;6.97;;;;;;;1.31;76.57;100621.00;5090532;28;20153;-86
2023/12/26 05:53:11;;;;;;;14.83;7.93;;;;;;;1.26;77.21;100615.63;5090449;28;20262;-81
2023/12/26 05:55:37;;;;;;;15.33;6.87;;;;;;;1.20;77.43;100605.88;5090481;28;20384;-83
2023/12/26 05:58:02;;;;;;;14.10;7.20;;;;;;;1.19;77.78;100617.06;5090580;28;20024;-81
2023/12/26 06:00:28;;;;;;;16.15;7.28;;;;;;;1.21;77.11;100619.75;5090149;28;20024;-81
2023/12/26 06:02:53;;;;;;;14.80;7.47;;;;;;;1.21;77.58;100619.75;5090779;28;20081;-81
2023/12/26 06:05:18;;;;;;;16.83;7.27;;;;;;;1.21;76.89;100617.16;5090514;28;20052;-82
2023/12/26 06:07:44;;;;;;;13.73;6.57;;;;;;;1.20;77.60;100618.84;5090242;28;20024;-81
2023/12/26 06:10:09;;;;;;;16.00;7.10;;;;;;;1.21;77.01;100627.53;5090163;28;20492;-80
2023/12/26 06:12:35;;;;;;;13.38;7.03;;;;;;;1.21;77.09;100638.81;5090404;28;20111;-81
2023/12/26 06:15:00;;;;;;;12.30;6.90;;;;;;;1.22;77.01;100639.66;5090004;28;20441;-81
2023/12/26 06:17:26;;;;;;;14.47;7.23;;;;;;;1.23;77.53;100639.75;5072047;28;20380;-81
2023/12/26 06:19:51;;;;;;;13.90;6.95;;;;;;;1.25;77.06;100650.16;5072183;28;20024;-80
2023/12/26 06:22:17;;;;;;;16.27;7.07;;;;;;;1.23;77.03;100651.81;5108736;28;20051;-81
2023/12/26 06:24:42;;;;;;;16.20;7.03;;;;;;;1.21;77.17;100650.88;5097807;28;20139;-81
2023/12/26 06:27:08;;;;;;;12.67;6.77;;;;;;;1.19;76.91;100660.31;5091135;28;20034;-81
2023/12/26 06:29:34;;;;;;;18.70;7.55;;;;;;;1.19;76.81;100666.38;5089496;28;20040;-85
2023/12/26 06:32:00;;;;;;;12.73;6.60;;;;;;;1.19;77.09;100665.50;5089984;28;20039;-81
2023/12/26 06:34:25;;;;;;;14.77;6.72;;;;;;;1.20;77.39;100667.25;5090107;28;20051;-81
2023/12/26 06:36:50;;;;;;;14.77;6.50;;;;;;;1.18;77.45;100669.78;5090007;28;20464;-81
2023/12/26 06:39:16;;;;;;;12.33;6.73;;;;;;;1.18;77.11;100671.50;5090071;28;20030;-81
2023/12/26 06:41:44;;;;;;;13.03;7.00;;;;;;;1.13;76.75;100669.63;5089895;28;20067;-83
2023/12/26 06:44:10;;;;;;;11.55;6.03;;;;;;;1.09;77.26;100675.50;5089379;28;20487;-81
2023/12/26 06:46:42;;;;;;;11.65;6.32;;;;;;;1.10;76.87;100681.56;5089752;28;20036;-81
2023/12/26 06:49:16;;;;;;;14.05;6.72;;;;;;;1.09;77.16;100683.28;5089693;28;20021;-82
2023/12/26 06:51:41;;;;;;;18.47;7.33;;;;;;;1.06;76.64;100680.53;5089473;28;20028;-82
2023/12/26 06:54:07;;;;;;;15.43;7.80;;;;;;;1.03;76.65;100679.56;5089860;28;20028;-81
2023/12/26 06:56:32;;;;;;;18.77;6.90;;;;;;;0.96;77.55;100678.41;5089767;28;20443;-82
2023/12/26 06:58:58;;;;;;;13.20;6.77;;;;;;;0.95;77.09;100671.44;5089452;28;20024;-80
2023/12/26 07:01:24;;;;;;;15.25;6.47;;;;;;;0.97;76.95;100678.47;5089905;28;20024;-80
2023/12/26 07:03:49;;;;;;;15.18;6.55;;;;;;;1.00;77.24;100675.09;5089613;28;20029;-80
2023/12/26 07:06:15;;;;;;;15.13;6.00;;;;;;;1.00;77.66;100675.09;5089461;28;20479;-81
2023/12/26 07:08:40;;;;;;;15.80;6.80;;;;;;;0.99;77.32;100683.72;5089847;28;20030;-80
2023/12/26 07:11:06;;;;;;;16.90;6.50;;;;;;;0.97;77.53;100681.06;5092904;28;20024;-80
2023/12/26 07:13:31;;;;;;;12.57;6.60;;;;;;;0.95;77.48;100677.50;5093389;28;20024;-80
2023/12/26 07:15:56;;;;;;;16.60;6.03;;;;;;;0.92;77.13;100686.88;5075352;28;20036;-80
2023/12/26 07:18:22;;;;;;;13.67;6.63;;;;;;;0.91;77.83;100687.69;5093660;28;20518;-84
2023/12/26 07:20:47;;;;;;;12.37;6.13;;;;;;;0.91;77.19;100691.16;5069495;28;20031;-81
2023/12/26 07:23:13;;;;;;;14.53;6.33;;;;;;;0.91;77.46;100692.88;5095488;28;20298;-80
2023/12/26 07:25:38;;;;;;;15.20;6.63;;;;;;;0.90;77.81;100685.94;5087420;28;20065;-80
2023/12/26 07:28:04;;;;;;;15.20;7.10;;;;;;;0.89;76.94;100685.03;5093676;28;20433;-82
2023/12/26 07:30:29;;;;;;;16.33;6.45;;;;;;;0.85;77.40;100683.13;5074657;28;20028;-80
2023/12/26 07:32:55;;;;;;;14.30;6.43;;;;;;;0.82;77.52;100678.69;5093269;28;20120;-82
2023/12/26 07:35:20;;;;;;;13.67;6.80;;;;;;;0.84;77.75;100690.03;5093319;28;20012;-80
2023/12/26 07:37:45;;;;;;;18.10;7.13;;;;;;;0.82;77.64;100689.06;5075030;28;20514;-80
2023/12/26 07:40:12;;;;;;;13.43;6.83;;;;;;;0.80;77.75;100688.13;5093402;28;20032;-82
2023/12/26 07:42:37;;;;;;;15.95;6.53;;;;;;;0.79;77.86;100701.03;5093052;28;20402;-86
2023/12/26 07:45:02;;;;;;;15.53;7.10;;;;;;;0.77;77.82;100706.13;5074192;28;20035;-80
2023/12/26 07:47:28;;;;;;;14.13;6.43;;;;;;;0.77;77.34;100708.72;5092520;28;20066;-81
2023/12/26 07:49:53;;;;;;;13.85;5.97;;;;;;;0.79;77.55;100717.47;5092687;28;20117;-80
2023/12/26 07:52:19;;;;;;;15.40;6.33;;;;;;;0.82;77.93;100721.91;5093134;28;20032;-81
2023/12/26 07:54:44;;;;;;;13.80;6.03;;;;;;;0.85;78.15;100717.75;5092795;28;20406;-85
2023/12/26 07:57:09;;;;;;;15.87;6.57;;;;;;;0.87;77.75;100714.31;5093036;28;20038;-80
2023/12/26 07:59:35;;;;;;;14.20;5.93;;;;;;;0.87;77.91;100719.50;5074231;28;20190;-80
2023/12/26 08:02:00;;;;;;;13.30;5.90;;;;;;;0.88;77.94;100721.28;5092634;28;20063;-80
2023/12/26 08:04:26;;;;;;;13.87;6.20;;;;;;;0.95;77.12;100718.13;5093100;28;20128;-85
2023/12/26 08:06:51;;;;;;;12.23;6.13;;;;;;;1.06;77.20;100718.56;5092471;28;20028;-86
2023/12/26 08:09:17;;;;;;;13.02;6.25;;;;;;;1.26;77.32;100724.59;5092615;28;20031;-86
2023/12/26 08:11:43;;;;;;;11.90;5.20;;;;;;;1.48;76.98;100730.66;5092778;28;20028;-87
2023/12/26 08:14:08;;;;;;;12.20;5.23;;;;;;;1.68;77.13;100734.94;5074045;28;20620;-85
2023/12/26 08:16:34;;;;;;;11.60;5.60;;;;;;;1.92;76.15;100726.34;5092409;28;20124;-87
2023/12/26 08:19:01;;;;;;;11.50;5.27;;;;;;;2.11;75.22;100716.66;5092887;28;20369;-91
2023/12/26 08:21:27;;;;;;;12.90;5.22;;;;;;;2.29;75.26;100717.34;5104735;28;20085;-81
2023/12/26 08:23:52;;;;;;;16.70;5.70;;;;;;;2.45;75.31;100725.69;5089730;28;20048;-84
2023/12/26 08:26:18;;;;;;;15.37;5.60;;;;;;;2.61;75.19;100726.25;5080142;28;20476;-85
2023/12/26 08:28:44;;;;;;;12.52;5.53;;;;;;;2.76;74.60;100721.56;5071670;28;20085;-87
2023/12/26 08:31:10;;;;;;;13.57;5.60;;;;;;;2.92;74.11;100719.53;5072019;28;20201;-81
2023/12/26 08:33:37;;;;;;;14.20;6.83;;;;;;;3.02;74.24;100713.81;5072019;28;20305;-83
2023/12/26 08:36:03;;;;;;;13.38;6.38;;;;;;;3.10;74.20;100722.75;5072059;28;20437;-83
2023/12/26 08:38:28;;;;;;;17.20;6.60;;;;;;;3.20;74.09;100720.44;5072068;28;20029;-81
2023/12/26 08:40:54;;;;;;;14.55;7.00;;;;;;;3.27;74.29;100723.31;5071925;28;20123;-82
2023/12/26 08:43:20;;;;;;;13.77;6.93;;;;;;;3.37;74.44;100728.81;5071582;28;20089;-81
2023/12/26 08:45:45;;;;;;;14.38;6.85;;;;;;;3.43;74.04;100732.50;5070855;28;20250;-81
2023/12/26 08:48:11;;;;;;;14.60;6.17;;;;;;;3.48;74.16;100734.38;5072032;28;20083;-82
2023/12/26 08:50:37;;;;;;;15.20;5.87;;;;;;;3.55;74.39;100736.38;5071598;28;20028;-82
2023/12/26 08:53:02;;;;;;;17.20;6.53;;;;;;;3.64;74.21;100746.19;5071448;28;20028;-81
2023/12/26 08:55:27;;;;;;;12.03;5.93;;;;;;;3.79;74.06;100753.59;5070196;28;20044;-82
2023/12/26 08:57:53;;;;;;;12.83;6.17;;;;;;;3.95;74.08;100757.56;5071401;28;20056;-84
2023/12/26 09:00:19;;;;;;;13.32;6.00;;;;;;;4.00;73.89;100758.59;5069354;28;20390;-82
2023/12/26 09:02:45;;;;;;;15.83;6.53;;;;;;;4.09;74.06;100763.19;5071415;28;20496;-82
2023/12/26 09:05:11;;;;;;;15.77;6.63;;;;;;;4.22;73.69;100752.31;5071158;28;20051;-82
2023/12/26 09:07:37;;;;;;;16.63;6.80;;;;;;;4.28;73.98;100755.09;5071062;28;20037;-82
2023/12/26 09:10:04;;;;;;;14.57;6.27;;;;;;;4.35;73.46;100757.88;5071011;28;20116;-86
2023/12/26 09:12:29;;;;;;;11.65;5.32;;;;;;;4.40;73.66;100757.19;5070852;28;20028;-83
2023/12/26 09:14:54;;;;;;;11.07;5.40;;;;;;;4.48;73.41;100760.03;5070649;28;20051;-83
2023/12/26 09:17:20;;;;;;;12.13;5.10;;;;;;;4.54;73.78;100765.41;5071026;28;20074;-82
2023/12/26 09:19:45;;;;;;;11.00;4.97;;;;;;;4.63;73.93;100767.41;5070982;28;20111;-82
2023/12/26 09:22:10;;;;;;;11.20;5.63;;;;;;;4.71;73.76;100767.63;5088394;28;20097;-82
2023/12/26 09:24:36;;;;;;;10.57;4.97;;;;;;;4.76;73.43;100775.56;5088362;28;20040;-84
2023/12/26 09:27:02;;;;;;;10.85;4.68;;;;;;;4.80;73.46;100791.34;5072630;28;20039;-82
2023/12/26 09:29:27;;;;;;;10.17;4.20;;;;;;;4.85;73.69;100801.94;5070344;28;20100;-82
2023/12/26 09:31:54;;;;;;;9.97;4.40;;;;;;;5.02;73.31;100820.66;5070468;28;20092;-82
2023/12/26 09:34:19;;;;;;;10.15;4.53;;;;;;;5.17;72.74;100831.50;5069219;28;20029;-81
2023/12/26 09:36:45;;;;;;;12.33;5.63;;;;;;;5.34;72.30;100822.38;5070713;28;20078;-82
2023/12/26 09:39:10;;;;;;;14.93;6.03;;;;;;;5.49;72.61;100801.84;5070641;28;20044;-81
2023/12/26 09:41:35;;;;;;;16.08;5.80;;;;;;;5.62;72.33;100797.81;5071806;28;20024;-82
2023/12/26 09:44:01;;;;;;;12.97;6.40;;;;;;;5.79;71.93;100789.53;5070564;28;20071;-82
2023/12/26 09:46:28;;;;;;;10.73;5.47;;;;;;;5.89;72.36;100795.00;5069340;28;20040;-87
2023/12/26 09:48:54;;;;;;;15.97;6.53;;;;;;;6.06;71.01;100793.66;5070604;28;20029;-82
2023/12/26 09:51:23;;;;;;;14.18;7.00;;;;;;;6.19;71.31;100790.50;5071966;28;20111;-81
2023/12/26 09:53:56;;;;;;;13.48;6.45;;;;;;;6.27;70.05;100801.09;5076820;28;20052;-82
2023/12/26 09:56:23;;;;;;;14.15;6.07;;;;;;;6.25;71.48;100803.69;5072070;28;20032;-85
2023/12/26 09:58:49;;;;;;;12.90;6.35;;;;;;;6.21;70.99;100799.25;5070331;28;20032;-85
2023/12/26 10:01:14;;;;;;;17.73;7.70;;;;;;;6.17;71.43;100794.81;5070644;28;20390;-83
2023/12/26 10:03:41;;;;;;;12.90;5.97;;;;;;;6.02;71.54;100796.22;5070608;28;20021;-82
2023/12/26 10:06:08;;;;;;;14.60;5.67;;;;;;;5.99;72.09;100806.56;5070512;28;20639;-85
2023/12/26 10:08:33;;;;;;;11.27;6.20;;;;;;;6.03;71.36;100803.19;5069951;28;20060;-84
2023/12/26 10:10:58;;;;;;;11.77;5.57;;;;;;;5.98;71.60;100796.97;5070350;28;20079;-82
2023/12/26 10:13:24;;;;;;;14.13;6.30;;;;;;;5.97;71.86;100784.72;5069776;28;20024;-82
2023/12/26 10:15:49;;;;;;;12.83;6.37;;;;;;;5.97;71.96;100783.84;5069606;28;20093;-83
2023/12/26 10:18:16;;;;;;;10.67;6.00;;;;;;;5.93;71.65;100782.91;5070015;28;20024;-83
2023/12/26 10:20:42;;;;;;;11.35;5.75;;;;;;;5.90;72.14;100788.03;5076161;28;20021;-85
2023/12/26 10:23:07;;;;;;;12.30;5.93;;;;;;;5.87;71.79;100788.84;5096899;28;20043;-84
2023/12/26 10:25:34;;;;;;;11.77;6.10;;;;;;;5.89;72.07;100788.88;5103193;28;20442;-83
2023/12/26 10:28:00;;;;;;;14.23;7.00;;;;;;;5.89;72.25;100791.50;5089917;28;20028;-82
2023/12/26 10:30:26;;;;;;;12.17;6.57;;;;;;;5.88;72.58;100780.16;5089504;28;20034;-82
2023/12/26 10:32:59;;;;;;;13.55;6.82;;;;;;;5.90;70.99;100767.13;5089991;28;20031;-82
2023/12/26 10:35:24;;;;;;;11.25;6.22;;;;;;;5.91;71.89;100768.00;5071422;28;20028;-83
2023/12/26 10:37:51;;;;;;;14.20;6.30;;;;;;;5.91;72.21;100766.31;5089773;28;20016;-83
2023/12/26 10:40:18;;;;;;;12.30;6.13;;;;;;;5.93;71.87;100766.31;5071634;28;20024;-86
2023/12/26 10:42:48;;;;;;;12.70;6.15;;;;;;;5.97;71.55;100753.38;5071677;28;20123;-83
2023/12/26 10:45:14;;;;;;;14.02;6.53;;;;;;;6.02;71.88;100736.06;5088441;28;20024;-82
2023/12/26 10:47:44;;;;;;;13.13;6.23;;;;;;;6.08;71.60;100726.59;5089642;28;20438;-82
2023/12/26 10:50:10;;;;;;;14.30;5.78;;;;;;;6.11;72.09;100724.03;5089589;28;20024;-82
2023/12/26 10:52:40;;;;;;;14.45;6.20;;;;;;;6.18;72.01;100720.72;5089746;28;20024;-82
2023/12/26 10:55:07;;;;;;;13.30;6.43;;;;;;;6.27;71.81;100722.63;5089644;28;20040;-82
2023/12/26 10:57:34;;;;;;;12.05;5.95;;;;;;;6.36;72.08;100727.19;5089614;28;20032;-82
2023/12/26 13:52:09;;;;;;;9.57;5.15;;;;;;;12.56;63.59;100682.88;5090932;28;20043;-84
2023/12/26 13:55:12;;;;;;;10.70;5.78;;;;;;;12.72;63.29;100686.31;5070600;28;20028;-81
2023/12/26 13:58:17;;;;;;;11.73;4.72;;;;;;;12.81;62.98;100697.72;5070478;28;20492;-83
2023/12/26 14:01:20;;;;;;;9.90;5.00;;;;;;;12.77;62.63;100687.16;5070053;28;20484;-82
2023/12/26 14:04:23;;;;;;;9.47;5.17;;;;;;;12.66;62.83;100689.00;5070236;28;20051;-82
2023/12/26 14:07:26;;;;;;;9.45;5.40;;;;;;;12.43;62.51;100700.56;5052154;28;20373;-84
2023/12/26 14:10:29;;;;;;;11.90;6.07;;;;;;;12.21;63.20;100699.78;5070144;28;20097;-81
2023/12/26 14:13:32;;;;;;;11.60;6.60;;;;;;;11.92;63.18;100701.59;5070058;28;20028;-81